KCPC

Columbus County Municipal Airport

Whiteville, North Carolina, USA
METAR KCPC 241435Z AUTO 23005KT 10SM CLR 31/22 A3000 RMK AO2 T03050221
Observed Flight Rules
Jun-24 @ 14:35 UTC (30 minutes ago) Visual Flight Rules
Wind Visibility Clouds
230° at 5 knots 10 miles
  • Clear skies
Temperatures Readings
Current 31°C / 88°F
Dewpoint 22°C / 72°F
Humidity 59%
Altimeter 30" Hg
Pressure 1016 hPa
Elevation 29
METAR KCPC 241435Z AUTO 23005KT 10SM CLR 31/22 A3000 RMK AO2 T03050221
Observed Flight Rules
Jun-24 @ 14:35 UTC
(30 minutes ago)
VFR
Wind Visibility
230° at 5 knots 10 miles
Clouds
  • Clear skies
Temperature Dewpoint
31°C / 88°F 22°C / 72°F
Humidity Altimeter Pressure
59% 30" Hg 1016 hPa